createdAt,value
2022-12-03T00:00:12.457Z,88.13
2022-12-03T00:02:14.738Z,87.70
2022-12-03T00:04:16.285Z,87.99
2022-12-03T00:06:17.954Z,87.60
2022-12-03T00:08:19.346Z,88.47
2022-12-03T00:10:20.831Z,87.93
2022-12-03T00:12:22.234Z,87.86
2022-12-03T00:14:23.628Z,87.58
2022-12-03T00:16:25.074Z,88.08
2022-12-03T00:18:26.513Z,88.61
2022-12-03T00:20:27.916Z,87.45
2022-12-03T00:22:29.321Z,88.51
2022-12-03T00:24:30.717Z,87.67
2022-12-03T00:26:32.112Z,87.88
2022-12-03T00:28:33.510Z,87.50
2022-12-03T00:30:34.892Z,87.91
2022-12-03T00:32:36.284Z,87.71
2022-12-03T00:34:37.646Z,88.30
2022-12-03T00:36:39.020Z,87.61
2022-12-03T00:38:40.485Z,87.63
2022-12-03T00:40:41.979Z,87.99
2022-12-03T00:42:43.324Z,87.25
2022-12-03T00:44:44.704Z,87.68
2022-12-03T00:46:46.101Z,88.06
2022-12-03T00:48:47.527Z,87.86
2022-12-03T00:50:48.930Z,87.43
2022-12-03T00:52:50.330Z,87.83
2022-12-03T00:54:52.140Z,87.13
2022-12-03T00:56:53.727Z,87.40
2022-12-03T00:58:55.114Z,87.65
2022-12-03T01:00:57.724Z,87.54
2022-12-03T01:02:59.107Z,87.85
2022-12-03T01:05:00.573Z,87.38
2022-12-03T01:07:02.008Z,87.64
2022-12-03T01:09:03.591Z,87.49
2022-12-03T01:11:25.108Z,87.30
2022-12-03T01:13:26.602Z,87.24
2022-12-03T01:15:27.990Z,87.17
2022-12-03T01:17:29.400Z,87.29
2022-12-03T01:19:30.815Z,87.17
2022-12-03T01:21:32.739Z,87.06
2022-12-03T01:23:34.115Z,86.77
2022-12-03T01:25:35.470Z,87.33
2022-12-03T01:27:36.983Z,87.49
2022-12-03T01:29:38.349Z,87.50
2022-12-03T01:31:58.373Z,87.09
2022-12-03T01:33:59.933Z,87.61
2022-12-03T01:36:01.290Z,87.04
2022-12-03T01:38:02.636Z,87.25
2022-12-03T01:40:05.352Z,87.09
2022-12-03T01:42:09.123Z,87.24
2022-12-03T01:44:16.747Z,86.66
2022-12-03T01:46:22.043Z,86.72
2022-12-03T01:48:23.441Z,86.46
2022-12-03T01:50:31.701Z,87.15
2022-12-03T01:52:37.283Z,87.69
2022-12-03T01:54:41.787Z,86.94
2022-12-03T01:56:43.783Z,87.09
2022-12-03T01:58:46.269Z,86.99
2022-12-03T02:00:47.657Z,87.24
2022-12-03T02:02:52.634Z,87.15
2022-12-03T02:04:55.262Z,87.22
2022-12-03T02:06:56.908Z,87.13
2022-12-03T02:09:00.189Z,87.11
2022-12-03T02:11:05.740Z,87.52
2022-12-03T02:13:10.797Z,86.72
2022-12-03T02:15:12.863Z,86.89
2022-12-03T02:17:14.497Z,86.67
2022-12-03T02:19:26.834Z,87.29
2022-12-03T02:21:48.419Z,86.62
2022-12-03T02:23:52.739Z,86.82
2022-12-03T02:25:54.161Z,87.08
2022-12-03T02:27:56.020Z,87.09
2022-12-03T02:29:57.685Z,86.63
2022-12-03T02:32:14.188Z,86.90
2022-12-03T02:34:45.537Z,86.69
2022-12-03T02:36:46.912Z,86.61
2022-12-03T02:38:49.637Z,86.30
2022-12-03T02:40:56.630Z,86.75
2022-12-03T02:43:01.048Z,86.65
2022-12-03T02:45:14.362Z,86.81
2022-12-03T02:47:16.006Z,86.84
2022-12-03T02:49:17.406Z,86.80
2022-12-03T02:51:18.860Z,86.72
2022-12-03T02:53:24.708Z,86.77
2022-12-03T02:55:30.649Z,86.89
2022-12-03T02:57:37.330Z,87.03
2022-12-03T02:59:39.034Z,87.04
2022-12-03T03:01:40.577Z,86.70
2022-12-03T03:03:44.492Z,86.83
2022-12-03T03:05:47.554Z,87.06
2022-12-03T03:07:53.008Z,87.25
2022-12-03T03:09:54.466Z,87.24
2022-12-03T03:11:55.884Z,86.77
2022-12-03T03:13:57.313Z,87.14
2022-12-03T03:15:59.331Z,86.49
2022-12-03T03:18:00.743Z,87.01
2022-12-03T03:20:03.894Z,86.74
2022-12-03T03:22:06.209Z,86.95
2022-12-03T03:24:07.783Z,87.19
2022-12-03T03:26:12.453Z,86.95
2022-12-03T03:28:14.236Z,87.20
2022-12-03T03:30:16.028Z,87.15
2022-12-03T03:32:23.144Z,87.09
2022-12-03T03:34:24.786Z,86.97
2022-12-03T03:36:26.310Z,87.13
2022-12-03T03:38:29.767Z,86.88
2022-12-03T03:40:31.467Z,87.03
2022-12-03T03:42:33.257Z,87.01
2022-12-03T03:44:34.904Z,86.94
2022-12-03T03:46:37.373Z,86.99
2022-12-03T03:48:41.154Z,87.12
2022-12-03T03:50:44.332Z,87.08
2022-12-03T03:52:46.596Z,87.21
2022-12-03T03:54:48.177Z,87.51
2022-12-03T03:56:49.726Z,87.37
2022-12-03T03:58:51.233Z,87.17
2022-12-03T04:00:52.669Z,86.96
2022-12-03T04:02:54.279Z,87.12
2022-12-03T04:04:56.232Z,87.35
2022-12-03T04:06:57.776Z,87.24
2022-12-03T04:08:59.127Z,87.15
2022-12-03T04:11:19.148Z,86.97
2022-12-03T04:13:20.556Z,87.11
2022-12-03T04:15:22.290Z,86.97
2022-12-03T04:17:23.740Z,87.09
2022-12-03T04:19:25.160Z,87.24
2022-12-03T04:21:44.979Z,87.03
2022-12-03T04:23:46.340Z,87.03
2022-12-03T04:26:06.200Z,87.09
2022-12-03T04:28:26.974Z,87.37
2022-12-03T04:30:28.439Z,87.23
2022-12-03T04:32:48.282Z,86.83
2022-12-03T04:35:08.143Z,86.95
2022-12-03T04:37:09.739Z,87.03
2022-12-03T04:39:11.109Z,86.88
2022-12-03T04:41:12.434Z,86.93
2022-12-03T04:43:13.826Z,86.92
2022-12-03T04:45:15.222Z,87.43
2022-12-03T04:47:19.518Z,87.19
2022-12-03T04:49:21.793Z,87.44
2022-12-03T04:51:23.169Z,87.10
2022-12-03T04:53:24.554Z,87.07
2022-12-03T04:55:25.951Z,87.53
2022-12-03T04:57:27.299Z,87.67
2022-12-03T04:59:29.112Z,87.22
2022-12-03T05:01:30.603Z,86.69
2022-12-03T05:03:32.018Z,87.36
2022-12-03T05:05:33.364Z,87.45
2022-12-03T05:07:34.742Z,87.13
2022-12-03T05:09:36.149Z,87.04
2022-12-03T05:11:37.930Z,87.26
2022-12-03T05:13:39.357Z,87.17
2022-12-03T05:15:40.727Z,87.63
2022-12-03T05:17:42.208Z,87.29
2022-12-03T05:20:02.480Z,87.49
2022-12-03T05:22:03.852Z,87.00
2022-12-03T05:24:05.736Z,87.52
2022-12-03T05:26:07.143Z,86.93
2022-12-03T05:28:08.605Z,87.44
2022-12-03T05:30:10.332Z,87.59
2022-12-03T05:32:11.676Z,87.06
2022-12-03T05:34:13.081Z,87.54
2022-12-03T05:36:14.488Z,87.68
2022-12-03T05:38:15.918Z,87.83
2022-12-03T05:40:17.559Z,87.55
2022-12-03T05:42:37.588Z,87.57
2022-12-03T05:44:38.978Z,88.09
2022-12-03T05:46:40.339Z,87.57
2022-12-03T05:48:41.773Z,87.88
2022-12-03T05:50:45.222Z,87.58
2022-12-03T05:52:47.041Z,87.65
2022-12-03T05:54:48.532Z,87.81
2022-12-03T05:56:49.888Z,87.15
2022-12-03T05:58:51.273Z,87.49
2022-12-03T06:00:52.669Z,86.99
2022-12-03T06:02:54.556Z,87.29
2022-12-03T06:04:56.377Z,87.29
2022-12-03T06:06:57.890Z,87.22
2022-12-03T06:08:59.269Z,86.99
2022-12-03T06:11:00.620Z,87.11
2022-12-03T06:13:03.115Z,87.06
2022-12-03T06:15:05.365Z,87.22
2022-12-03T06:17:06.837Z,87.38
2022-12-03T06:19:08.218Z,87.50
2022-12-03T06:21:09.590Z,87.19
2022-12-03T06:23:10.991Z,86.91
2022-12-03T06:25:12.666Z,87.58
2022-12-03T06:27:14.152Z,87.54
2022-12-03T06:29:15.527Z,87.28
2022-12-03T06:31:16.966Z,87.75
2022-12-03T06:33:18.503Z,87.26
2022-12-03T06:35:19.885Z,87.66
2022-12-03T06:37:21.248Z,87.47
2022-12-03T06:39:22.618Z,87.75
2022-12-03T06:41:24.000Z,87.42
2022-12-03T06:43:25.483Z,87.27
2022-12-03T06:45:26.913Z,87.71
2022-12-03T06:47:28.300Z,87.40
2022-12-03T06:49:29.737Z,87.29
2022-12-03T06:51:31.210Z,87.68
2022-12-03T06:53:32.620Z,86.56
2022-12-03T06:55:33.953Z,86.91
2022-12-03T06:57:35.452Z,87.29
2022-12-03T06:59:37.471Z,87.53
2022-12-03T07:01:39.037Z,87.23
2022-12-03T07:03:40.457Z,87.46
2022-12-03T07:05:41.906Z,87.97
2022-12-03T07:07:43.373Z,87.50
2022-12-03T07:09:44.777Z,87.09
2022-12-03T07:11:46.189Z,87.41
2022-12-03T07:13:47.554Z,87.18
2022-12-03T07:15:49.059Z,87.23
2022-12-03T07:17:51.052Z,86.79
2022-12-03T07:19:52.445Z,87.62
2022-12-03T07:21:53.821Z,87.52
2022-12-03T07:23:55.204Z,87.21
2022-12-03T07:25:56.565Z,87.50
2022-12-03T07:27:57.932Z,86.86
2022-12-03T07:29:59.342Z,87.19
2022-12-03T07:32:00.709Z,87.42
2022-12-03T07:34:02.144Z,87.25
2022-12-03T07:36:03.676Z,87.12
2022-12-03T07:38:05.059Z,87.23
2022-12-03T07:40:07.103Z,86.94
2022-12-03T07:42:09.505Z,87.18
2022-12-03T07:44:14.600Z,87.22
2022-12-03T07:46:16.433Z,87.18
2022-12-03T07:48:17.857Z,87.14
2022-12-03T07:50:19.271Z,87.19
2022-12-03T07:52:20.655Z,87.05
2022-12-03T07:54:22.264Z,86.52
2022-12-03T07:56:23.616Z,86.68
2022-12-03T07:58:25.061Z,86.58
2022-12-03T08:00:26.497Z,86.29
2022-12-03T08:02:27.901Z,85.49
2022-12-03T08:04:29.349Z,86.20
2022-12-03T08:06:30.761Z,86.03
2022-12-03T08:08:32.176Z,86.00
2022-12-03T08:10:33.530Z,85.31
2022-12-03T08:12:40.649Z,85.99
2022-12-03T08:14:42.056Z,85.96
2022-12-03T08:16:45.050Z,85.73
2022-12-03T08:18:48.180Z,85.48
2022-12-03T08:20:51.246Z,85.64
2022-12-03T08:22:54.446Z,85.87
2022-12-03T08:24:56.162Z,85.60
2022-12-03T08:26:57.677Z,85.66
2022-12-03T08:28:59.622Z,86.31
2022-12-03T08:31:12.230Z,85.90
2022-12-03T08:33:19.827Z,85.56
2022-12-03T08:35:23.678Z,85.91
2022-12-03T08:37:25.166Z,85.57
2022-12-03T08:39:37.585Z,85.54
2022-12-03T08:41:57.546Z,85.55
2022-12-03T08:43:58.982Z,85.26
2022-12-03T08:46:00.480Z,85.79
2022-12-03T08:48:05.956Z,85.43
2022-12-03T08:50:27.973Z,84.83
2022-12-03T08:52:34.507Z,84.68
2022-12-03T08:54:35.872Z,85.01
2022-12-03T08:56:37.318Z,84.55
2022-12-03T08:58:44.006Z,84.67
2022-12-03T09:00:45.672Z,84.32
2022-12-03T09:02:52.298Z,84.73
2022-12-03T09:04:54.804Z,84.51
2022-12-03T09:06:56.735Z,84.06
2022-12-03T09:09:01.239Z,84.06
2022-12-03T09:11:06.601Z,83.68
2022-12-03T09:13:07.950Z,83.50
2022-12-03T09:15:09.918Z,83.55
2022-12-03T09:17:11.336Z,83.32
2022-12-03T09:19:12.748Z,84.15
2022-12-03T09:21:14.097Z,83.27
2022-12-03T09:23:15.471Z,83.49
2022-12-03T09:25:17.073Z,82.92
2022-12-03T09:27:18.619Z,83.05
2022-12-03T09:29:20.110Z,83.70
2022-12-03T09:31:21.519Z,83.02
2022-12-03T09:33:22.987Z,82.50
2022-12-03T09:35:25.963Z,82.68
2022-12-03T09:37:27.347Z,83.12
2022-12-03T09:39:28.685Z,82.32
2022-12-03T09:41:30.093Z,81.67
2022-12-03T09:44:02.619Z,81.40
2022-12-03T09:45:55.229Z,81.76
2022-12-03T09:47:57.152Z,81.75
2022-12-03T09:49:58.799Z,81.05
2022-12-03T09:52:02.395Z,81.32
2022-12-03T09:54:06.630Z,81.63
2022-12-03T09:56:17.966Z,81.28
2022-12-03T09:58:19.871Z,81.24
2022-12-03T10:00:24.220Z,80.62
2022-12-03T10:02:29.593Z,81.03
2022-12-03T10:04:31.513Z,81.25
2022-12-03T10:06:32.952Z,80.67
2022-12-03T10:08:34.420Z,81.04
2022-12-03T10:10:37.048Z,79.94
2022-12-03T10:12:38.387Z,80.58
2022-12-03T10:14:41.420Z,79.96
2022-12-03T10:16:43.528Z,79.86
2022-12-03T10:18:49.239Z,80.65
2022-12-03T10:20:52.684Z,80.71
2022-12-03T10:22:54.789Z,81.32
2022-12-03T10:25:25.439Z,80.84
2022-12-03T10:27:30.684Z,81.77
2022-12-03T10:29:35.018Z,81.01
2022-12-03T10:31:36.773Z,80.84
2022-12-03T10:33:42.974Z,81.06
2022-12-03T10:35:44.376Z,81.60
2022-12-03T10:38:02.456Z,81.54
2022-12-03T10:40:11.983Z,81.62
2022-12-03T10:42:16.002Z,81.65
2022-12-03T10:44:21.784Z,81.93
2022-12-03T10:46:23.354Z,81.93
2022-12-03T10:48:27.212Z,81.90
2022-12-03T10:50:28.835Z,81.60
2022-12-03T10:52:30.309Z,81.68
2022-12-03T10:54:35.357Z,81.35
2022-12-03T10:56:36.754Z,80.92
2022-12-03T10:58:40.357Z,81.62
2022-12-03T11:00:41.729Z,81.17
2022-12-03T11:02:43.172Z,81.12
2022-12-03T11:04:44.508Z,80.78
2022-12-03T11:06:45.959Z,81.63
2022-12-03T11:08:56.254Z,81.20
2022-12-03T11:11:04.470Z,81.63
2022-12-03T11:13:33.467Z,81.34
2022-12-03T11:15:44.301Z,80.98
2022-12-03T11:17:50.034Z,81.56
2022-12-03T11:19:52.302Z,80.85
2022-12-03T11:22:05.903Z,81.29
2022-12-03T11:24:19.944Z,81.01
2022-12-03T11:26:30.665Z,81.65
2022-12-03T11:28:33.967Z,81.03
2022-12-03T11:30:50.798Z,81.33
2022-12-03T11:32:55.104Z,81.40
2022-12-03T11:34:56.523Z,81.27
2022-12-03T11:37:10.120Z,80.99
2022-12-03T11:39:11.458Z,80.80
2022-12-03T11:41:21.096Z,80.94
2022-12-03T11:43:57.125Z,81.07
2022-12-03T11:46:10.566Z,80.87
2022-12-03T11:48:14.917Z,80.79
2022-12-03T11:50:20.805Z,80.26
2022-12-03T11:52:26.112Z,80.71
2022-12-03T11:54:28.223Z,81.06
2022-12-03T11:56:29.957Z,81.05
2022-12-03T11:58:32.286Z,80.47
2022-12-03T12:00:33.683Z,80.86
2022-12-03T12:02:35.116Z,80.88
2022-12-03T12:04:42.885Z,80.89
2022-12-03T12:06:47.450Z,80.69
2022-12-03T12:08:57.431Z,80.00
2022-12-03T12:10:59.192Z,80.79
2022-12-03T12:13:00.656Z,79.76
2022-12-03T12:15:34.298Z,80.67
2022-12-03T12:17:36.772Z,80.57
2022-12-03T12:19:42.944Z,80.64
2022-12-03T12:21:47.992Z,79.77
2022-12-03T12:23:49.411Z,79.77
2022-12-03T12:25:54.241Z,80.09
2022-12-03T12:27:56.954Z,80.74
2022-12-03T12:30:00.855Z,79.83
2022-12-03T12:32:12.184Z,80.83
2022-12-03T12:34:13.695Z,80.00
2022-12-03T12:36:15.125Z,80.28
2022-12-03T12:38:19.507Z,80.68
2022-12-03T12:40:24.255Z,80.87
2022-12-03T12:42:37.064Z,80.30
2022-12-03T12:44:38.448Z,80.66
2022-12-03T12:46:49.914Z,80.06
2022-12-03T12:48:55.223Z,80.60
2022-12-03T12:51:20.351Z,80.74
2022-12-03T12:53:26.908Z,80.72
2022-12-03T12:55:28.455Z,80.67
2022-12-03T12:57:29.852Z,80.59
2022-12-03T12:59:31.350Z,80.74
2022-12-03T13:01:33.160Z,80.40
2022-12-03T13:04:03.783Z,80.42
2022-12-03T13:06:05.435Z,80.60
2022-12-03T13:08:40.547Z,80.33
2022-12-03T13:10:42.448Z,80.79
2022-12-03T13:12:44.466Z,79.72
2022-12-03T13:14:45.884Z,80.36
2022-12-03T13:16:49.538Z,80.08
2022-12-03T13:18:58.829Z,79.77
2022-12-03T13:21:15.166Z,80.50
2022-12-03T13:23:33.218Z,80.27
2022-12-03T13:25:59.264Z,80.56
2022-12-03T13:27:58.800Z,80.16
2022-12-03T13:30:04.879Z,80.75
2022-12-03T13:32:27.634Z,80.78
2022-12-03T13:34:33.253Z,80.77
2022-12-03T13:36:45.574Z,80.52
2022-12-03T13:38:47.627Z,80.98
2022-12-03T13:41:32.820Z,81.24
2022-12-03T13:43:44.544Z,80.86
2022-12-03T13:45:51.291Z,80.14
2022-12-03T13:48:01.199Z,80.97
2022-12-03T13:50:19.572Z,80.83
2022-12-03T13:52:24.986Z,80.44
2022-12-03T13:54:30.148Z,80.70
2022-12-03T13:56:32.687Z,80.98
2022-12-03T13:58:34.068Z,81.06
2022-12-03T14:00:35.576Z,81.23
2022-12-03T14:02:37.120Z,80.38
2022-12-03T14:04:39.063Z,80.94
2022-12-03T14:06:40.509Z,81.01
2022-12-03T14:08:41.915Z,81.12
2022-12-03T14:10:43.323Z,80.90
2022-12-03T14:12:44.704Z,80.68
2022-12-03T14:14:46.117Z,80.82
2022-12-03T14:16:47.621Z,81.01
2022-12-03T14:18:49.093Z,80.68
2022-12-03T14:20:50.507Z,80.72
2022-12-03T14:22:57.641Z,81.34
2022-12-03T14:25:00.513Z,81.63
2022-12-03T14:27:01.944Z,80.93
2022-12-03T14:29:08.402Z,80.98
2022-12-03T14:31:10.214Z,80.63
2022-12-03T14:33:11.796Z,81.27
2022-12-03T14:35:13.392Z,80.98
2022-12-03T14:37:15.230Z,80.93
2022-12-03T14:39:16.588Z,81.23
2022-12-03T14:41:36.243Z,81.20
2022-12-03T14:43:37.632Z,81.07
2022-12-03T14:45:39.044Z,81.06
2022-12-03T14:47:40.452Z,81.34
2022-12-03T14:49:41.899Z,81.90
2022-12-03T14:51:43.319Z,81.41
2022-12-03T14:53:44.696Z,81.12
2022-12-03T14:55:47.973Z,81.11
2022-12-03T14:57:49.437Z,81.21
2022-12-03T14:59:50.788Z,81.34
2022-12-03T15:01:52.372Z,81.62
2022-12-03T15:03:53.858Z,81.62
2022-12-03T15:05:55.271Z,81.76
2022-12-03T15:07:56.660Z,81.22
2022-12-03T15:09:58.702Z,81.93
2022-12-03T15:12:00.233Z,81.77
2022-12-03T15:14:01.609Z,81.92
2022-12-03T15:16:03.186Z,81.91
2022-12-03T15:18:04.823Z,81.92
2022-12-03T15:20:06.999Z,81.92
2022-12-03T15:22:08.407Z,81.42
2022-12-03T15:24:10.575Z,81.27
2022-12-03T15:26:11.992Z,81.64
2022-12-03T15:28:13.376Z,81.69
2022-12-03T15:30:14.944Z,82.11
2022-12-03T15:32:16.345Z,81.98
2022-12-03T15:34:22.443Z,82.07
2022-12-03T15:36:24.391Z,81.96
2022-12-03T15:38:25.946Z,81.65
2022-12-03T15:40:27.914Z,82.42
2022-12-03T15:42:29.662Z,82.09
2022-12-03T15:44:31.012Z,82.45
2022-12-03T15:46:32.455Z,83.10
2022-12-03T15:48:34.509Z,82.43
2022-12-03T15:50:40.086Z,82.61
2022-12-03T15:52:43.970Z,82.60
2022-12-03T15:54:45.831Z,82.59
2022-12-03T15:56:47.207Z,82.19
2022-12-03T15:58:48.572Z,82.55
2022-12-03T16:00:49.924Z,82.66
2022-12-03T16:02:53.059Z,83.20
2022-12-03T16:04:54.689Z,82.61
2022-12-03T16:06:56.044Z,82.92
2022-12-03T16:08:57.394Z,82.91
2022-12-03T16:10:58.743Z,82.71
2022-12-03T16:13:00.095Z,82.90
2022-12-03T16:15:01.510Z,83.20
2022-12-03T16:17:03.072Z,83.61
2022-12-03T16:19:04.526Z,83.03
2022-12-03T16:21:05.944Z,82.87
2022-12-03T16:23:08.135Z,83.06
2022-12-03T16:25:09.725Z,82.87
2022-12-03T16:27:11.140Z,83.27
2022-12-03T16:29:12.533Z,82.91
2022-12-03T16:31:13.969Z,82.71
2022-12-03T16:33:15.534Z,82.98
2022-12-03T16:35:17.011Z,83.12
2022-12-03T16:37:18.501Z,83.27
2022-12-03T16:39:19.963Z,83.54
2022-12-03T16:41:22.350Z,83.60
2022-12-03T16:43:23.695Z,83.83
2022-12-03T16:45:43.719Z,83.46
2022-12-03T16:47:45.091Z,83.56
2022-12-03T16:49:46.452Z,83.66
2022-12-03T16:51:47.827Z,83.36
2022-12-03T16:53:49.345Z,83.66
2022-12-03T16:55:50.671Z,83.82
2022-12-03T16:57:52.056Z,83.61
2022-12-03T16:59:53.587Z,83.82
2022-12-03T17:01:55.454Z,83.48
2022-12-03T17:03:56.868Z,83.45
2022-12-03T17:05:58.283Z,83.54
2022-12-03T17:07:59.751Z,83.80
2022-12-03T17:10:01.258Z,83.92
2022-12-03T17:12:02.779Z,83.89
2022-12-03T17:14:04.180Z,83.38
2022-12-03T17:16:06.741Z,83.32
2022-12-03T17:18:08.812Z,83.96
2022-12-03T17:20:12.414Z,84.08
2022-12-03T17:22:13.895Z,83.89
2022-12-03T17:24:15.223Z,84.00
2022-12-03T17:26:18.176Z,83.68
2022-12-03T17:28:19.581Z,84.04
2022-12-03T17:30:20.979Z,83.08
2022-12-03T17:32:22.497Z,83.97
2022-12-03T17:34:23.858Z,84.26
2022-12-03T17:36:25.223Z,83.83
2022-12-03T17:38:26.604Z,84.52
2022-12-03T17:40:28.028Z,84.03
2022-12-03T17:42:29.445Z,83.70
2022-12-03T17:44:30.776Z,83.84
2022-12-03T17:46:32.775Z,83.48
2022-12-03T17:48:35.011Z,84.16
2022-12-03T17:50:36.375Z,84.23
2022-12-03T17:52:37.734Z,83.83
2022-12-03T17:55:08.352Z,83.53
2022-12-03T17:57:00.616Z,83.90
2022-12-03T17:59:01.972Z,84.11
2022-12-03T18:01:03.648Z,83.87
2022-12-03T18:03:05.062Z,84.12
2022-12-03T18:05:06.808Z,83.92
2022-12-03T18:07:08.267Z,84.22
2022-12-03T18:09:09.874Z,84.33
2022-12-03T18:11:11.221Z,84.17
2022-12-03T18:13:12.601Z,84.73
2022-12-03T18:15:14.739Z,84.08
2022-12-03T18:17:16.114Z,84.25
2022-12-03T18:19:17.551Z,84.10
2022-12-03T18:21:19.065Z,84.01
2022-12-03T18:23:20.712Z,84.02
2022-12-03T18:25:22.122Z,84.11
2022-12-03T18:27:23.781Z,83.96
2022-12-03T18:29:25.146Z,84.18
2022-12-03T18:31:26.574Z,83.88
2022-12-03T18:33:28.172Z,84.48
2022-12-03T18:35:29.666Z,84.08
2022-12-03T18:37:32.190Z,83.92
2022-12-03T18:39:35.857Z,84.27
2022-12-03T18:41:37.276Z,84.04
2022-12-03T18:43:41.305Z,84.03
2022-12-03T18:45:43.039Z,84.22
2022-12-03T18:47:44.927Z,84.25
2022-12-03T18:49:46.460Z,84.15
2022-12-03T18:51:48.541Z,84.05
2022-12-03T18:53:51.249Z,83.96
2022-12-03T18:55:52.684Z,84.37
2022-12-03T18:57:54.035Z,84.35
2022-12-03T18:59:55.680Z,84.59
2022-12-03T19:01:57.354Z,84.34
2022-12-03T19:03:58.924Z,84.23
2022-12-03T19:06:00.303Z,84.26
2022-12-03T19:08:02.352Z,84.08
2022-12-03T19:12:30.999Z,84.33
2022-12-03T19:14:36.109Z,84.41
2022-12-03T19:16:41.274Z,84.48
2022-12-03T19:18:43.117Z,84.70
2022-12-03T19:20:44.506Z,84.47
2022-12-03T19:22:46.158Z,84.62
2022-12-03T19:24:47.504Z,84.51
2022-12-03T19:26:49.116Z,84.65
2022-12-03T19:28:50.475Z,84.68
2022-12-03T19:31:00.706Z,85.08
2022-12-03T19:33:02.259Z,84.89
2022-12-03T19:35:05.235Z,85.00
2022-12-03T19:37:06.771Z,84.83
2022-12-03T19:39:08.145Z,84.65
2022-12-03T19:41:10.754Z,85.02
2022-12-03T19:43:12.098Z,85.04
2022-12-03T19:45:13.476Z,85.22
2022-12-03T19:47:14.854Z,85.14
2022-12-03T19:49:18.361Z,85.21
2022-12-03T19:51:34.083Z,85.47
2022-12-03T19:53:37.446Z,85.05
2022-12-03T19:55:38.883Z,85.46
2022-12-03T19:57:40.271Z,84.93
2022-12-03T19:59:42.715Z,85.23
2022-12-03T20:01:44.443Z,85.19
2022-12-03T20:03:48.239Z,85.03
2022-12-03T20:05:50.289Z,85.39
2022-12-03T20:07:51.723Z,85.40
2022-12-03T20:09:53.603Z,85.27
2022-12-03T20:11:55.190Z,84.98
2022-12-03T20:13:59.982Z,85.18
2022-12-03T20:16:05.716Z,85.15
2022-12-03T20:18:07.120Z,85.54
2022-12-03T20:20:09.047Z,85.40
2022-12-03T20:22:10.456Z,85.13
2022-12-03T20:24:15.097Z,85.21
2022-12-03T20:26:18.600Z,85.79
2022-12-03T20:28:20.106Z,85.68
2022-12-03T20:30:21.527Z,85.83
2022-12-03T20:32:25.246Z,85.64
2022-12-03T20:34:26.620Z,85.93
2022-12-03T20:36:30.649Z,85.55
2022-12-03T20:38:32.149Z,85.58
2022-12-03T20:40:36.477Z,85.61
2022-12-03T20:42:37.932Z,85.71
2022-12-03T20:44:39.303Z,86.09
2022-12-03T20:46:40.740Z,85.41
2022-12-03T20:48:43.360Z,85.66
2022-12-03T20:50:44.714Z,85.60
2022-12-03T20:53:09.357Z,85.40
2022-12-03T20:55:07.725Z,85.40
2022-12-03T20:57:09.160Z,85.15
2022-12-03T20:59:13.094Z,85.58
2022-12-03T21:01:17.471Z,85.07
2022-12-03T21:03:18.965Z,85.83
2022-12-03T21:05:20.427Z,85.85
2022-12-03T21:07:21.801Z,85.61
2022-12-03T21:09:23.220Z,85.56
2022-12-03T21:11:29.488Z,85.34
2022-12-03T21:13:32.522Z,85.53
2022-12-03T21:15:33.979Z,85.44
2022-12-03T21:17:35.456Z,85.23
2022-12-03T21:19:37.296Z,85.19
2022-12-03T21:21:38.690Z,85.12
2022-12-03T21:23:40.378Z,85.28
2022-12-03T21:25:41.731Z,84.95
2022-12-03T21:27:43.184Z,85.06
2022-12-03T21:29:44.544Z,85.33
2022-12-03T21:31:46.557Z,85.49
2022-12-03T21:33:48.237Z,85.13
2022-12-03T21:35:49.612Z,85.18
2022-12-03T21:37:51.680Z,85.01
2022-12-03T21:39:53.822Z,85.84
2022-12-03T21:42:18.647Z,84.99
2022-12-03T21:44:16.987Z,85.44
2022-12-03T21:47:10.097Z,85.19
2022-12-03T21:48:39.923Z,85.02
2022-12-03T21:50:41.518Z,85.37
2022-12-03T21:52:42.970Z,85.35
2022-12-03T21:54:44.463Z,85.12
2022-12-03T21:56:45.861Z,84.81
2022-12-03T21:58:47.331Z,85.27
2022-12-03T22:00:48.716Z,84.92
2022-12-03T22:02:50.119Z,84.59
2022-12-03T22:04:51.675Z,85.26
2022-12-03T22:06:53.066Z,85.06
2022-12-03T22:08:54.507Z,84.80
2022-12-03T22:10:55.861Z,84.69
2022-12-03T22:12:57.261Z,84.98
2022-12-03T22:14:58.792Z,85.37
2022-12-03T22:17:00.150Z,85.10
2022-12-03T22:19:01.504Z,85.42
2022-12-03T22:21:07.855Z,85.16
2022-12-03T22:23:09.219Z,84.92
2022-12-03T22:25:10.587Z,84.80
2022-12-03T22:27:13.053Z,85.21
2022-12-03T22:29:14.824Z,84.79
2022-12-03T22:31:19.616Z,85.27
2022-12-03T22:33:21.225Z,85.13
2022-12-03T22:35:22.607Z,85.03
2022-12-03T22:37:24.051Z,85.52
2022-12-03T22:39:25.421Z,85.07
2022-12-03T22:41:26.806Z,85.07
2022-12-03T22:43:28.207Z,84.83
2022-12-03T22:45:29.529Z,84.74
2022-12-03T22:47:30.922Z,85.24
2022-12-03T22:49:32.290Z,84.97
2022-12-03T22:51:34.081Z,85.63
2022-12-03T22:53:35.454Z,85.51
2022-12-03T22:55:37.106Z,85.03
2022-12-03T22:57:38.491Z,85.06
2022-12-03T22:59:39.865Z,84.94
2022-12-03T23:01:41.408Z,85.16
2022-12-03T23:03:42.844Z,84.94
2022-12-03T23:05:44.274Z,84.85
2022-12-03T23:07:45.698Z,85.05
2022-12-03T23:09:47.120Z,85.46
2022-12-03T23:11:48.556Z,84.98
2022-12-03T23:13:50.026Z,84.98
2022-12-03T23:15:52.492Z,85.17
2022-12-03T23:17:54.468Z,85.09
2022-12-03T23:19:56.027Z,85.23
2022-12-03T23:21:58.058Z,85.14
2022-12-03T23:24:01.339Z,85.08
2022-12-03T23:26:08.667Z,85.16
2022-12-03T23:28:10.767Z,84.95
2022-12-03T23:30:14.377Z,85.04
2022-12-03T23:32:15.736Z,85.05
2022-12-03T23:34:17.167Z,85.27
2022-12-03T23:36:19.333Z,85.53
2022-12-03T23:38:21.078Z,85.51
2022-12-03T23:40:22.414Z,85.37
2022-12-03T23:42:23.805Z,84.94
2022-12-03T23:44:27.379Z,85.66
2022-12-03T23:46:28.854Z,85.91
2022-12-03T23:48:30.763Z,85.41
2022-12-03T23:50:32.605Z,85.70
2022-12-03T23:52:35.878Z,85.50
2022-12-03T23:54:37.964Z,85.83
2022-12-03T23:56:40.840Z,85.41
2022-12-03T23:58:42.792Z,85.59
